Time;durP1;ratioP1;P1;durP2;ratioP2;P2;SDS_P1;SDS_P2;PMS_P1;PMS_P2;Temp;Humidity;BMP_temperature;BMP_pressure;BME280_temperature;BME280_humidity;BME280_pressure;Samples;Min_cycle;Max_cycle;Signal;HPM_P1;HPM_P2
2023/09/30 00:01:22;;;;;;;7.55;2.30;;;;;;;;;;4951619;28;20498;-86
2023/09/30 00:03:48;;;;;;;7.35;1.80;;;;;;;;;;4953631;28;20434;-83
2023/09/30 00:06:14;;;;;;;5.53;1.92;;;17.30;99.90;;;;;;4955207;29;20028;-86
2023/09/30 00:08:41;;;;;;;6.13;1.73;;;;;;;;;;4949304;28;20189;-84
2023/09/30 00:11:07;;;;;;;5.15;2.03;;;;;;;;;;4952336;28;20042;-85
2023/09/30 00:13:33;;;;;;;8.77;2.13;;;18.00;99.90;;;;;;4950857;28;20082;-86
2023/09/30 00:15:59;;;;;;;6.43;1.20;;;;;;;;;;4945426;28;20036;-88
2023/09/30 00:18:25;;;;;;;5.93;2.20;;;;;;;;;;4951825;28;20027;-86
2023/09/30 00:20:51;;;;;;;4.22;1.48;;;;;;;;;;4951285;29;20382;-88
2023/09/30 00:23:18;;;;;;;4.18;1.30;;;;;;;;;;4953333;28;20182;-85
2023/09/30 00:25:44;;;;;;;5.35;1.45;;;;;;;;;;4951165;28;20031;-86
2023/09/30 00:28:10;;;;;;;4.55;1.10;;;;;;;;;;4950769;28;20035;-83
2023/09/30 00:30:36;;;;;;;9.98;1.33;;;;;;;;;;4952717;28;20028;-85
2023/09/30 00:33:02;;;;;;;6.75;1.83;;;;;;;;;;4949602;28;20026;-89
2023/09/30 00:35:28;;;;;;;3.20;0.90;;;17.30;99.90;;;;;;4951399;28;20055;-83
2023/09/30 00:37:54;;;;;;;4.20;1.35;;;;;;;;;;4952164;29;20501;-83
2023/09/30 00:40:19;;;;;;;5.55;1.20;;;17.80;99.90;;;;;;4954585;28;20027;-85
2023/09/30 00:42:46;;;;;;;3.80;0.93;;;;;;;;;;4949403;28;20121;-87
2023/09/30 00:45:12;;;;;;;3.75;1.15;;;;;;;;;;4951183;28;20046;-86
2023/09/30 00:47:38;;;;;;;3.15;1.00;;;;;;;;;;4952661;28;20023;-85
2023/09/30 00:50:07;;;;;;;3.35;1.13;;;;;;;;;;4951023;28;20015;-87
2023/09/30 00:52:34;;;;;;;3.60;1.30;;;;;;;;;;4947878;28;20019;-85
2023/09/30 00:55:00;;;;;;;3.42;0.70;;;;;;;;;;4953634;29;20035;-85
2023/09/30 00:57:27;;;;;;;1.10;0.55;;;;;;;;;;4950859;28;20027;-84
2023/09/30 00:59:54;;;;;;;2.88;1.50;;;;;;;;;;4946964;28;20038;-85
2023/09/30 01:02:20;;;;;;;5.65;1.23;;;;;;;;;;4951723;28;20128;-85
2023/09/30 01:04:46;;;;;;;5.30;0.93;;;;;;;;;;4951640;28;20039;-83
2023/09/30 01:07:12;;;;;;;3.80;1.25;;;;;;;;;;4950342;28;20030;-87
2023/09/30 01:09:38;;;;;;;5.13;1.58;;;17.10;99.90;;;;;;4950929;28;20047;-86
2023/09/30 01:12:04;;;;;;;1.95;1.17;;;17.00;99.90;;;;;;4951638;28;20118;-88
2023/09/30 01:14:42;;;;;;;3.63;1.30;;;;;;;;;;4942425;28;20310;-84
2023/09/30 01:17:13;;;;;;;4.43;1.27;;;;;;;;;;4947760;29;20466;-87
2023/09/30 01:19:39;;;;;;;2.45;0.85;;;;;;;;;;4947195;28;20038;-86
2023/09/30 01:22:05;;;;;;;4.57;1.40;;;;;;;;;;4950462;28;20035;-86
2023/09/30 01:24:31;;;;;;;6.07;1.45;;;;;;;;;;4950352;28;20095;-86
2023/09/30 01:26:57;;;;;;;9.40;1.40;;;16.90;99.90;;;;;;4953277;28;20019;-86
2023/09/30 01:29:25;;;;;;;2.55;1.20;;;;;;;;;;4949049;28;20751;-90
2023/09/30 01:31:51;;;;;;;3.67;1.85;;;;;;;;;;4947790;28;20383;-85
2023/09/30 01:34:17;;;;;;;5.93;1.10;;;;;;;;;;4951721;28;20023;-82
2023/09/30 01:36:44;;;;;;;4.85;1.10;;;;;;;;;;4949513;28;20581;-84
2023/09/30 01:39:10;;;;;;;7.57;1.60;;;;;;;;;;4943923;28;20492;-89
2023/09/30 01:41:36;;;;;;;3.70;1.50;;;;;;;;;;4951617;28;20035;-83
2023/09/30 01:44:02;;;;;;;3.42;1.60;;;;;;;;;;4949588;28;20434;-87
2023/09/30 01:46:28;;;;;;;4.03;1.30;;;;;;;;;;4951930;28;20027;-84
2023/09/30 01:48:55;;;;;;;2.55;1.33;;;;;;;;;;4948135;28;20568;-85
2023/09/30 01:51:21;;;;;;;4.57;1.85;;;;;;;;;;4950910;28;20622;-86
2023/09/30 01:53:47;;;;;;;2.90;1.25;;;;;;;;;;4947662;28;20083;-85
2023/09/30 01:56:13;;;;;;;3.80;1.30;;;16.80;99.90;;;;;;4951304;28;20051;-84
2023/09/30 01:58:39;;;;;;;6.15;1.70;;;;;;;;;;4946055;28;20023;-85
2023/09/30 02:01:05;;;;;;;3.35;1.50;;;;;;;;;;4950099;29;20043;-85
2023/09/30 02:03:31;;;;;;;7.47;1.70;;;;;;;;;;4948886;29;20035;-85
2023/09/30 02:05:58;;;;;;;4.03;1.38;;;;;;;;;;4946010;28;20031;-90
2023/09/30 02:08:24;;;;;;;5.60;2.08;;;16.40;99.90;;;;;;4947373;28;20126;-84
2023/09/30 02:10:53;;;;;;;6.45;1.70;;;;;;;;;;4949913;28;20035;-88
2023/09/30 02:13:19;;;;;;;5.78;1.88;;;;;;;;;;4965342;28;20078;-90
2023/09/30 02:15:46;;;;;;;3.00;1.60;;;;;;;;;;4963100;28;20067;-87
2023/09/30 02:18:12;;;;;;;5.35;2.00;;;;;;;;;;4955459;28;20032;-87
2023/09/30 02:20:40;;;;;;;7.13;1.88;;;16.70;99.90;;;;;;4956907;28;20027;-85
2023/09/30 02:23:07;;;;;;;8.70;2.22;;;;;;;;;;4949231;29;20030;-85
2023/09/30 02:25:33;;;;;;;5.07;2.20;;;;;;;;;;4952401;28;20161;-92
2023/09/30 02:28:00;;;;;;;7.75;1.83;;;;;;;;;;4950139;28;20122;-89
2023/09/30 02:30:27;;;;;;;3.72;1.67;;;;;;;;;;4951719;28;20027;-88
2023/09/30 02:32:53;;;;;;;6.07;2.17;;;;;;;;;;4950045;28;20027;-88
2023/09/30 02:35:20;;;;;;;5.65;1.98;;;;;;;;;;4952125;28;20149;-86
2023/09/30 02:37:46;;;;;;;7.25;2.47;;;;;;;;;;4954081;28;20047;-87
2023/09/30 02:40:14;;;;;;;3.67;1.75;;;;;;;;;;4955212;28;20066;-85
2023/09/30 02:42:41;;;;;;;13.45;2.55;;;;;;;;;;4952665;28;20031;-87
2023/09/30 02:45:08;;;;;;;6.03;1.98;;;16.40;99.90;;;;;;4954533;28;20095;-86
2023/09/30 02:47:37;;;;;;;5.75;2.50;;;;;;;;;;4951468;28;20106;-86
2023/09/30 02:50:05;;;;;;;8.57;2.35;;;;;;;;;;4953015;28;20039;-89
2023/09/30 02:52:31;;;;;;;5.78;2.78;;;;;;;;;;4953266;29;20035;-87
2023/09/30 02:54:57;;;;;;;10.57;1.95;;;;;;;;;;4956448;29;20031;-87
2023/09/30 02:57:23;;;;;;;4.72;2.45;;;;;;;;;;4956534;28;20031;-86
2023/09/30 02:59:49;;;;;;;8.95;2.83;;;;;;;;;;4951713;28;20118;-88
2023/09/30 03:02:15;;;;;;;6.10;1.95;;;;;;;;;;4954089;28;20062;-89
2023/09/30 03:04:42;;;;;;;5.38;2.65;;;;;;;;;;4953169;28;20402;-89
2023/09/30 03:07:08;;;;;;;7.63;2.63;;;;;;;;;;4954976;28;20437;-85
2023/09/30 03:09:35;;;;;;;5.32;2.28;;;;;;;;;;4953228;28;20118;-84
2023/09/30 03:12:03;;;;;;;7.05;2.92;;;;;;;;;;4956123;28;20043;-86
2023/09/30 03:14:30;;;;;;;5.20;1.85;;;;;;;;;;4951868;28;20031;-85
2023/09/30 03:16:56;;;;;;;5.97;2.03;;;;;;;;;;4947936;28;20043;-84
2023/09/30 03:19:22;;;;;;;9.38;2.70;;;;;;;;;;4952412;28;20394;-87
2023/09/30 03:21:48;;;;;;;4.30;2.22;;;;;;;;;;4953044;28;20058;-90
2023/09/30 03:24:14;;;;;;;6.60;2.55;;;15.30;99.90;;;;;;4952983;29;20509;-86
2023/09/30 03:26:41;;;;;;;4.78;2.17;;;;;;;;;;4950985;28;20597;-85
2023/09/30 03:29:08;;;;;;;5.82;2.63;;;;;;;;;;4953433;28;20032;-89
2023/09/30 03:31:34;;;;;;;8.48;2.50;;;;;;;;;;4948512;28;20043;-89
2023/09/30 03:34:00;;;;;;;7.90;2.65;;;;;;;;;;4955249;28;20153;-87
2023/09/30 03:36:26;;;;;;;9.48;2.53;;;;;;;;;;4949924;28;20042;-86
2023/09/30 03:38:58;;;;;;;4.80;2.63;;;;;;;;;;4952287;28;20773;-86
2023/09/30 03:41:24;;;;;;;5.95;2.35;;;;;;;;;;4950977;28;20027;-85
2023/09/30 03:43:50;;;;;;;6.78;2.47;;;;;;;;;;4951432;28;20102;-84
2023/09/30 03:46:17;;;;;;;10.23;3.00;;;;;;;;;;4951719;28;20043;-85
2023/09/30 03:48:44;;;;;;;6.00;2.50;;;;;;;;;;4953877;28;20250;-87
2023/09/30 03:51:13;;;;;;;5.03;2.70;;;;;;;;;;4954457;29;20027;-86
2023/09/30 03:53:39;;;;;;;6.05;3.00;;;;;;;;;;4953532;28;20047;-85
2023/09/30 03:56:06;;;;;;;8.52;2.67;;;;;;;;;;4952788;28;20044;-85
2023/09/30 03:58:32;;;;;;;5.15;2.47;;;;;;;;;;4951550;28;20077;-87
2023/09/30 04:00:58;;;;;;;4.68;2.40;;;;;;;;;;4951544;28;20154;-85
2023/09/30 04:03:24;;;;;;;4.15;2.08;;;;;;;;;;4956738;28;20167;-88
2023/09/30 04:05:50;;;;;;;3.42;1.95;;;;;;;;;;4950243;28;20115;-87
2023/09/30 04:08:17;;;;;;;5.93;3.00;;;;;;;;;;4956249;28;20027;-86
2023/09/30 04:10:43;;;;;;;9.02;2.78;;;;;;;;;;4948090;28;20569;-85
2023/09/30 04:13:11;;;;;;;6.40;2.47;;;;;;;;;;4946994;28;20049;-85
2023/09/30 04:15:37;;;;;;;6.38;2.35;;;;;;;;;;4946396;28;20039;-89
2023/09/30 04:18:05;;;;;;;9.65;3.22;;;;;;;;;;4954266;28;20175;-90
2023/09/30 04:20:32;;;;;;;7.25;3.38;;;;;;;;;;4946066;28;20391;-88
2023/09/30 04:22:58;;;;;;;6.07;2.58;;;;;;;;;;4951039;28;20295;-82
2023/09/30 04:25:24;;;;;;;6.80;2.92;;;;;;;;;;4952869;28;20078;-88
2023/09/30 04:27:50;;;;;;;3.60;2.28;;;;;;;;;;4940308;28;20108;-81
2023/09/30 04:30:17;;;;;;;6.38;2.47;;;;;;;;;;4940120;28;20055;-87
2023/09/30 04:32:43;;;;;;;4.13;2.30;;;;;;;;;;4945937;28;20034;-85
2023/09/30 04:35:10;;;;;;;6.63;2.50;;;;;;;;;;4946814;28;20046;-86
2023/09/30 04:37:36;;;;;;;6.18;2.75;;;;;;;;;;4946429;28;20039;-90
2023/09/30 04:40:07;;;;;;;6.78;3.08;;;;;;;;;;4944077;28;20090;-85
2023/09/30 04:42:34;;;;;;;4.60;2.53;;;;;;;;;;4941540;28;21036;-86
2023/09/30 04:45:00;;;;;;;8.93;2.67;;;;;;;;;;4939860;28;20118;-81
2023/09/30 04:47:26;;;;;;;5.78;2.65;;;;;;;;;;4933853;28;20123;-85
2023/09/30 04:49:52;;;;;;;5.38;2.50;;;;;;;;;;4943945;28;20023;-83
2023/09/30 04:52:18;;;;;;;9.88;3.20;;;;;;;;;;4938442;28;20027;-83
2023/09/30 04:54:45;;;;;;;10.80;3.35;;;14.80;99.90;;;;;;4947956;28;20589;-84
2023/09/30 04:57:11;;;;;;;6.18;2.78;;;;;;;;;;4936725;28;20062;-85
2023/09/30 04:59:37;;;;;;;6.82;2.47;;;;;;;;;;4943187;28;20500;-85
2023/09/30 05:02:03;;;;;;;7.55;2.80;;;;;;;;;;4941285;28;20375;-85
2023/09/30 05:04:29;;;;;;;6.55;2.58;;;;;;;;;;4944312;28;20042;-85
2023/09/30 05:06:55;;;;;;;8.30;3.13;;;;;;;;;;4947802;28;20036;-87
2023/09/30 05:09:21;;;;;;;4.15;2.20;;;;;;;;;;4949899;28;20518;-85
2023/09/30 05:11:48;;;;;;;4.65;2.50;;;;;;;;;;4937240;28;20022;-86
2023/09/30 05:14:14;;;;;;;7.70;2.25;;;;;;;;;;4945933;28;20496;-90
2023/09/30 05:16:40;;;;;;;7.15;3.10;;;;;;;;;;4932374;28;20114;-85
2023/09/30 05:19:05;;;;;;;4.20;2.55;;;;;;;;;;4956935;29;20012;-87
2023/09/30 05:21:31;;;;;;;7.30;2.70;;;;;;;;;;4954374;28;20031;-85
2023/09/30 05:23:58;;;;;;;5.47;2.38;;;;;;;;;;4952566;29;20032;-88
2023/09/30 05:26:24;;;;;;;6.25;3.28;;;;;;;;;;4945875;28;20043;-89
2023/09/30 05:28:50;;;;;;;4.70;2.40;;;;;;;;;;4951217;28;20078;-83
2023/09/30 05:31:16;;;;;;;5.57;2.55;;;14.30;99.90;;;;;;4948020;28;20027;-81
2023/09/30 05:33:42;;;;;;;4.05;2.45;;;;;;;;;;4950159;28;20031;-85
2023/09/30 05:36:08;;;;;;;7.10;2.60;;;;;;;;;;4951473;28;20031;-84
2023/09/30 05:38:34;;;;;;;5.43;2.35;;;;;;;;;;4938083;28;20491;-84
2023/09/30 05:41:01;;;;;;;6.38;2.90;;;;;;;;;;4937182;28;20043;-82
2023/09/30 05:43:27;;;;;;;3.65;2.42;;;;;;;;;;4942201;28;20031;-85
2023/09/30 05:45:54;;;;;;;6.68;3.17;;;;;;;;;;4944218;28;20028;-83
2023/09/30 05:48:21;;;;;;;6.80;3.20;;;;;;;;;;4930350;29;20036;-81
2023/09/30 05:50:47;;;;;;;8.93;2.83;;;;;;;;;;4944315;29;20027;-84
2023/09/30 05:53:13;;;;;;;3.90;2.10;;;;;;;;;;4944530;29;20514;-86
2023/09/30 05:55:42;;;;;;;8.63;2.58;;;;;;;;;;4940126;28;20037;-82
2023/09/30 05:58:09;;;;;;;8.52;3.30;;;;;;;;;;4944297;29;20487;-81
2023/09/30 06:00:35;;;;;;;4.60;2.65;;;;;;;;;;4944609;29;20038;-83
2023/09/30 06:03:04;;;;;;;4.53;2.70;;;;;;;;;;4932122;28;20050;-86
2023/09/30 06:05:31;;;;;;;8.65;3.30;;;;;;;;;;4928802;28;20035;-83
2023/09/30 06:07:57;;;;;;;7.43;3.40;;;;;;;;;;4936495;28;20135;-83
2023/09/30 06:10:25;;;;;;;5.38;2.50;;;;;;;;;;4942260;28;20062;-84
2023/09/30 06:12:56;;;;;;;9.02;3.28;;;;;;;;;;4940075;28;20118;-83
2023/09/30 06:15:25;;;;;;;7.07;2.78;;;;;;;;;;4948107;28;20039;-83
2023/09/30 06:17:51;;;;;;;7.53;3.08;;;;;;;;;;4939857;28;20074;-82
2023/09/30 06:20:18;;;;;;;8.57;2.80;;;;;;;;;;4939712;28;20042;-83
2023/09/30 06:22:49;;;;;;;5.75;2.70;;;;;;;;;;4926564;28;20473;-84
2023/09/30 06:25:18;;;;;;;4.13;2.78;;;;;;;;;;4936321;28;20134;-84
2023/09/30 06:27:47;;;;;;;9.50;2.25;;;;;;;;;;4943739;28;20416;-86
2023/09/30 06:30:15;;;;;;;7.07;2.92;;;;;;;;;;4960177;28;20027;-88
2023/09/30 06:32:41;;;;;;;5.20;3.05;;;;;;;;;;4969006;29;20045;-88
2023/09/30 06:35:10;;;;;;;8.88;3.63;;;;;;;;;;4959794;28;20051;-85
2023/09/30 06:37:36;;;;;;;7.78;3.20;;;;;;;;;;4953024;28;20387;-84
2023/09/30 06:40:04;;;;;;;6.72;2.22;;;;;;;;;;4946306;28;20051;-89
2023/09/30 06:42:31;;;;;;;6.43;2.88;;;;;;;;;;4949867;28;20027;-87
2023/09/30 06:44:57;;;;;;;7.05;2.67;;;14.60;99.90;;;;;;4944536;28;20096;-86
2023/09/30 06:47:23;;;;;;;4.95;2.33;;;;;;;;;;4943276;28;20027;-86
2023/09/30 06:49:50;;;;;;;13.95;3.92;;;;;;;;;;4936882;28;20027;-84
2023/09/30 06:52:17;;;;;;;5.68;2.28;;;;;;;;;;4950177;29;20039;-85
2023/09/30 06:54:43;;;;;;;6.85;2.72;;;;;;;;;;4946474;28;20035;-86
2023/09/30 06:57:09;;;;;;;6.38;2.55;;;;;;;;;;4948785;29;20398;-88
2023/09/30 06:59:36;;;;;;;7.85;3.30;;;;;;;;;;4944303;28;20046;-86
2023/09/30 07:02:02;;;;;;;5.88;3.00;;;;;;;;;;4949135;28;20027;-88
2023/09/30 07:04:29;;;;;;;4.13;2.17;;;15.30;99.90;;;;;;4949837;28;20082;-84
2023/09/30 07:06:55;;;;;;;5.00;2.35;;;;;;;;;;4945158;29;20035;-89
2023/09/30 07:09:21;;;;;;;10.70;2.95;;;;;;;;;;4952108;28;20040;-86
2023/09/30 07:11:49;;;;;;;8.90;3.22;;;;;;;;;;4947074;28;20059;-86
2023/09/30 07:14:15;;;;;;;4.20;2.35;;;;;;;;;;4929445;28;20035;-84
2023/09/30 07:16:41;;;;;;;9.82;2.95;;;;;;;;;;4942962;29;20462;-81
2023/09/30 07:19:07;;;;;;;10.88;3.05;;;;;;;;;;4933811;28;20035;-85
2023/09/30 07:21:33;;;;;;;6.25;2.63;;;;;;;;;;4931740;28;20027;-86
2023/09/30 07:23:59;;;;;;;3.53;2.20;;;;;;;;;;4946818;29;20367;-88
2023/09/30 07:26:25;;;;;;;6.40;2.97;;;;;;;;;;4950556;28;20082;-81
2023/09/30 07:28:53;;;;;;;11.40;2.97;;;;;;;;;;4935390;28;20059;-84
2023/09/30 07:31:19;;;;;;;6.13;2.88;;;;;;;;;;4945965;29;20094;-87
2023/09/30 07:33:45;;;;;;;7.38;2.60;;;;;;;;;;4947377;28;20040;-84
2023/09/30 07:36:13;;;;;;;5.38;2.78;;;;;;;;;;4945057;28;20048;-84
2023/09/30 07:38:39;;;;;;;8.02;2.45;;;;;;;;;;4938343;29;20020;-82
2023/09/30 07:41:06;;;;;;;4.65;2.38;;;;;;;;;;4950575;29;20035;-85
2023/09/30 07:43:32;;;;;;;5.88;2.72;;;;;;;;;;4938373;28;20039;-82
2023/09/30 07:45:59;;;;;;;6.13;3.65;;;;;;;;;;4925792;28;20058;-90
2023/09/30 07:48:26;;;;;;;9.90;3.22;;;;;;;;;;4927943;28;20028;-83
2023/09/30 07:50:52;;;;;;;8.48;2.33;;;;;;;;;;4939662;28;20031;-85
2023/09/30 07:53:17;;;;;;;11.43;2.70;;;;;;;;;;4946986;29;20094;-83
2023/09/30 07:55:44;;;;;;;8.30;3.03;;;;;;;;;;4951771;28;20027;-85
2023/09/30 07:58:09;;;;;;;10.65;3.50;;;;;;;;;;4941604;28;20027;-82
2023/09/30 08:00:36;;;;;;;5.28;3.05;;;;;;;;;;4949679;28;20857;-85
2023/09/30 08:03:02;;;;;;;9.35;3.00;;;;;;;;;;4948636;29;20024;-82
2023/09/30 08:05:28;;;;;;;9.07;3.90;;;;;;;;;;4942674;29;21397;-83
2023/09/30 08:07:54;;;;;;;5.97;3.03;;;;;;;;;;4927892;28;22081;-84
2023/09/30 08:10:20;;;;;;;10.20;2.90;;;;;;;;;;4949307;28;20031;-84
2023/09/30 08:12:48;;;;;;;8.40;2.80;;;;;;;;;;4946305;28;20360;-85
2023/09/30 08:15:14;;;;;;;6.20;2.67;;;;;;;;;;4943612;28;20046;-83
2023/09/30 08:17:40;;;;;;;6.50;2.40;;;20.30;99.90;;;;;;4939331;28;20039;-84
2023/09/30 08:20:08;;;;;;;4.55;2.28;;;;;;;;;;4950934;28;20477;-86
2023/09/30 08:22:34;;;;;;;4.47;2.15;;;;;;;;;;4921746;28;20031;-85
2023/09/30 08:25:00;;;;;;;3.95;1.85;;;;;;;;;;4931575;28;20034;-85
2023/09/30 08:27:26;;;;;;;7.07;2.13;;;;;;;;;;4934302;28;20035;-87
2023/09/30 08:29:52;;;;;;;10.73;2.05;;;19.60;99.90;;;;;;4928860;28;21576;-84
2023/09/30 08:32:18;;;;;;;8.77;2.10;;;;;;;;;;4942043;28;20523;-85
2023/09/30 08:34:44;;;;;;;3.25;1.80;;;;;;;;;;4932074;28;20027;-87
2023/09/30 08:37:10;;;;;;;5.00;2.63;;;;;;;;;;4924982;28;20568;-83
2023/09/30 08:39:46;;;;;;;6.07;2.22;;;20.90;99.90;;;;;;4933245;28;20035;-85
2023/09/30 08:42:12;;;;;;;4.55;1.95;;;;;;;;;;4939769;28;20039;-84
2023/09/30 08:44:40;;;;;;;4.18;1.80;;;23.20;99.90;;;;;;4951021;28;20027;-82
2023/09/30 08:47:09;;;;;;;5.88;2.88;;;23.60;99.90;;;;;;4934815;29;20066;-87
2023/09/30 08:49:39;;;;;;;9.68;2.70;;;23.80;99.90;;;;;;4935953;29;20042;-83
2023/09/30 08:52:06;;;;;;;7.60;1.92;;;23.60;99.90;;;;;;4937129;28;20077;-84
2023/09/30 08:54:32;;;;;;;4.80;1.85;;;;;;;;;;4921814;28;20039;-86
2023/09/30 08:56:58;;;;;;;4.40;1.73;;;;;;;;;;4943302;28;20379;-83
2023/09/30 08:59:25;;;;;;;6.35;1.92;;;;;;;;;;4945060;28;20053;-86
2023/09/30 09:01:52;;;;;;;4.28;1.73;;;22.10;99.90;;;;;;4933579;29;20446;-85
2023/09/30 09:04:18;;;;;;;4.47;1.60;;;21.70;99.90;;;;;;4942548;29;20818;-82
2023/09/30 09:06:44;;;;;;;4.65;1.98;;;;;;;;;;4942407;28;20035;-86
2023/09/30 09:09:16;;;;;;;6.30;2.53;;;21.00;99.90;;;;;;4937321;28;20090;-83
2023/09/30 09:11:42;;;;;;;10.55;2.58;;;20.30;99.90;;;;;;4939798;28;20028;-83
2023/09/30 09:14:08;;;;;;;3.15;1.75;;;;;;;;;;4946354;29;20449;-83
2023/09/30 09:16:34;;;;;;;5.15;1.63;;;;;;;;;;4947823;28;20486;-85
2023/09/30 09:19:15;;;;;;;5.28;2.28;;;20.20;99.90;;;;;;4942187;28;20024;-86
2023/09/30 09:21:58;;;;;;;7.80;1.73;;;19.70;99.90;;;;;;4936865;28;20449;-85
2023/09/30 09:24:34;;;;;;;6.88;2.10;;;19.90;99.90;;;;;;4941654;29;20027;-88
2023/09/30 09:27:08;;;;;;;3.45;1.33;;;20.20;99.90;;;;;;4951785;29;20434;-84
2023/09/30 09:29:37;;;;;;;2.75;1.65;;;20.00;99.90;;;;;;4942968;29;20027;-83
2023/09/30 09:32:13;;;;;;;4.20;1.73;;;19.80;99.90;;;;;;4937475;28;20043;-88
2023/09/30 09:34:40;;;;;;;4.10;1.63;;;20.20;99.90;;;;;;4933896;28;20129;-83
2023/09/30 09:37:19;;;;;;;4.25;1.30;;;20.20;99.90;;;;;;4950801;28;20039;-84
2023/09/30 09:39:56;;;;;;;5.13;2.13;;;20.00;99.90;;;;;;4944556;28;20042;-85
2023/09/30 09:42:26;;;;;;;7.43;1.60;;;20.30;99.90;;;;;;4948993;29;20070;-83
2023/09/30 09:45:02;;;;;;;5.03;2.17;;;21.60;99.90;;;;;;4933992;28;20190;-84
2023/09/30 09:47:31;;;;;;;7.25;2.13;;;20.50;99.90;;;;;;4943565;29;20118;-83
2023/09/30 09:49:57;;;;;;;7.20;2.05;;;21.20;99.90;;;;;;4942247;29;20071;-85
2023/09/30 09:52:24;;;;;;;7.13;1.75;;;21.10;99.90;;;;;;4944732;28;20032;-85
2023/09/30 09:54:51;;;;;;;6.55;2.55;;;;;;;;;;4952985;29;20035;-85
2023/09/30 09:57:18;;;;;;;11.40;2.17;;;;;;;;;;4945281;28;20047;-85
2023/09/30 09:59:47;;;;;;;8.15;2.28;;;;;;;;;;4944225;28;20050;-85
2023/09/30 10:02:14;;;;;;;4.78;2.05;;;20.50;99.90;;;;;;4937864;29;20489;-84
2023/09/30 10:04:44;;;;;;;6.45;2.47;;;20.10;99.90;;;;;;4944200;28;20409;-84
2023/09/30 10:07:14;;;;;;;5.28;2.20;;;20.60;99.90;;;;;;4946362;28;20050;-83
2023/09/30 10:09:45;;;;;;;4.15;1.75;;;19.80;99.90;;;;;;4945428;28;20435;-88
2023/09/30 10:12:11;;;;;;;10.23;3.17;;;20.40;99.90;;;;;;4945077;28;20032;-81
2023/09/30 10:14:37;;;;;;;4.97;1.80;;;;;;;;;;4946090;29;20198;-84
2023/09/30 10:17:03;;;;;;;7.97;2.55;;;20.50;99.90;;;;;;4943367;28;20044;-83
2023/09/30 10:19:32;;;;;;;4.43;2.20;;;;;;;;;;4942300;28;20426;-87
2023/09/30 10:22:16;;;;;;;4.80;1.30;;;20.00;99.90;;;;;;4939574;29;20027;-87
2023/09/30 10:24:42;;;;;;;8.68;1.83;;;;;;;;;;4949070;29;20022;-83
2023/09/30 10:27:32;;;;;;;3.95;1.50;;;19.90;99.90;;;;;;4940272;28;20031;-88
2023/09/30 10:30:10;;;;;;;4.22;2.47;;;20.10;99.90;;;;;;4946824;28;20027;-87
2023/09/30 10:32:51;;;;;;;7.25;2.22;;;;;;;;;;4950853;29;20138;-86
2023/09/30 10:35:17;;;;;;;8.98;2.20;;;;;;;;;;4946014;28;20063;-85
2023/09/30 10:37:44;;;;;;;7.00;1.88;;;;;;;;;;4955185;28;20093;-85
2023/09/30 10:40:10;;;;;;;6.05;1.73;;;;;;;;;;4954994;28;20028;-83
2023/09/30 10:42:54;;;;;;;4.78;2.15;;;21.20;99.90;;;;;;4954025;28;20050;-89
2023/09/30 10:45:38;;;;;;;4.32;1.80;;;20.30;99.90;;;;;;4943503;28;20059;-90
2023/09/30 10:48:31;;;;;;;7.25;2.58;;;20.20;99.90;;;;;;4943827;28;20035;-84
2023/09/30 10:51:01;;;;;;;4.45;1.85;;;21.60;99.90;;;;;;4945592;28;20031;-85
2023/09/30 10:53:28;;;;;;;4.35;1.70;;;20.90;99.90;;;;;;4946424;28;20406;-84
2023/09/30 10:55:59;;;;;;;6.50;2.13;;;21.70;99.90;;;;;;4954424;28;20042;-87
2023/09/30 10:58:44;;;;;;;10.10;3.35;;;21.70;99.90;;;;;;4951548;29;20062;-87
2023/09/30 11:01:11;;;;;;;11.43;2.63;;;21.50;99.90;;;;;;4946997;28;20039;-83
2023/09/30 11:03:37;;;;;;;6.72;2.03;;;;;;;;;;4956281;28;20035;-81
2023/09/30 11:06:03;;;;;;;12.20;4.10;;;;;;;;;;4967012;28;20071;-90
2023/09/30 11:08:30;;;;;;;6.55;2.55;;;20.80;99.90;;;;;;4967893;28;20058;-85
2023/09/30 11:10:56;;;;;;;6.28;2.38;;;;;;;;;;4962618;28;20570;-85
2023/09/30 11:13:22;;;;;;;11.20;2.40;;;20.00;99.90;;;;;;4952088;28;20043;-84
2023/09/30 11:16:04;;;;;;;3.90;1.55;;;20.30;99.90;;;;;;4949708;28;20139;-84
2023/09/30 11:18:31;;;;;;;6.07;2.08;;;;;;;;;;4945326;28;20035;-85
2023/09/30 11:21:05;;;;;;;5.38;1.60;;;19.80;99.90;;;;;;4948245;28;20023;-83
2023/09/30 11:23:31;;;;;;;7.93;2.13;;;20.20;99.90;;;;;;4952810;28;20023;-86
2023/09/30 11:25:57;;;;;;;4.63;1.67;;;;;;;;;;4951215;28;20059;-81
2023/09/30 11:28:26;;;;;;;3.67;1.70;;;;;;;;;;4948833;28;20023;-84
2023/09/30 11:30:58;;;;;;;5.30;1.73;;;;;;;;;;4935432;28;20024;-83
2023/09/30 11:33:25;;;;;;;9.15;2.55;;;;;;;;;;4946947;28;20035;-87
2023/09/30 11:36:00;;;;;;;8.57;1.40;;;20.50;99.90;;;;;;4949516;28;20047;-82
2023/09/30 11:38:26;;;;;;;6.43;2.65;;;;;;;;;;4946592;28;20039;-84
2023/09/30 11:41:06;;;;;;;9.35;2.15;;;19.90;99.90;;;;;;4955576;28;20509;-81
2023/09/30 11:43:32;;;;;;;8.32;2.50;;;;;;;;;;4940425;28;20048;-83
2023/09/30 11:46:27;;;;;;;5.05;1.67;;;19.30;99.90;;;;;;4945491;28;20474;-85
2023/09/30 11:49:01;;;;;;;11.02;2.28;;;19.90;99.90;;;;;;4950680;28;20054;-82
2023/09/30 11:51:28;;;;;;;5.40;2.15;;;20.50;99.90;;;;;;4936191;28;20039;-84
2023/09/30 11:53:54;;;;;;;5.70;1.65;;;;;;;;;;4940857;29;20087;-82
2023/09/30 11:56:22;;;;;;;5.00;1.58;;;20.10;99.90;;;;;;4947928;28;20097;-84
2023/09/30 11:58:48;;;;;;;6.50;2.05;;;;;;;;;;4950396;28;20038;-82
2023/09/30 12:01:16;;;;;;;7.47;2.10;;;;;;;;;;4946801;28;20195;-86
2023/09/30 12:03:42;;;;;;;6.90;2.25;;;;;;;;;;4944445;29;20028;-83
2023/09/30 12:06:08;;;;;;;5.82;2.33;;;;;;;;;;4950789;28;20028;-85
2023/09/30 12:08:34;;;;;;;7.15;1.85;;;;;;;;;;4948929;29;20028;-84
2023/09/30 12:11:00;;;;;;;8.52;2.42;;;;;;;;;;4951908;29;20027;-83
2023/09/30 12:13:26;;;;;;;6.45;1.83;;;;;;;;;;4950526;28;20114;-83
2023/09/30 12:15:57;;;;;;;5.07;1.85;;;;;;;;;;4948517;28;20028;-83
2023/09/30 12:18:24;;;;;;;6.60;2.42;;;;;;;;;;4950238;28;20036;-83
2023/09/30 12:20:52;;;;;;;12.70;2.17;;;;;;;;;;4946846;28;20043;-82
2023/09/30 12:23:18;;;;;;;6.90;2.90;;;;;;;;;;4938180;28;20091;-84
2023/09/30 12:25:44;;;;;;;8.27;2.78;;;;;;;;;;4953107;28;20451;-83
2023/09/30 12:28:10;;;;;;;9.25;2.50;;;;;;;;;;4950833;28;20031;-84
2023/09/30 12:30:36;;;;;;;5.38;1.83;;;;;;;;;;4938272;28;20027;-88
2023/09/30 12:33:02;;;;;;;6.18;1.83;;;;;;;;;;4944051;29;20082;-83
2023/09/30 12:35:28;;;;;;;7.68;2.47;;;;;;;;;;4946402;28;20031;-84
2023/09/30 12:37:54;;;;;;;6.50;2.50;;;;;;;;;;4940648;28;20023;-84
2023/09/30 12:40:20;;;;;;;5.90;2.17;;;;;;;;;;4955369;28;20034;-83
2023/09/30 12:42:47;;;;;;;5.32;2.30;;;;;;;;;;4951309;28;20031;-82
2023/09/30 12:45:13;;;;;;;7.03;3.05;;;;;;;;;;4950823;28;20459;-79
2023/09/30 12:47:39;;;;;;;7.43;2.45;;;;;;;;;;4944682;28;20105;-83
2023/09/30 12:50:08;;;;;;;6.20;2.45;;;;;;;;;;4950467;28;20118;-88
2023/09/30 12:52:34;;;;;;;7.88;1.98;;;;;;;;;;4942939;28;20103;-85
2023/09/30 12:55:00;;;;;;;6.15;2.53;;;;;;;;;;4952115;29;20070;-83
2023/09/30 12:57:26;;;;;;;8.32;2.25;;;;;;;;;;4950284;28;20026;-84
2023/09/30 12:59:53;;;;;;;10.00;2.45;;;;;;;;;;4938683;28;20034;-82
2023/09/30 13:02:19;;;;;;;6.35;1.70;;;;;;;;;;4936260;28;20026;-82
2023/09/30 13:04:45;;;;;;;7.80;2.88;;;;;;;;;;4940030;28;20023;-82
2023/09/30 13:07:11;;;;;;;10.25;2.20;;;;;;;;;;4945255;28;20034;-82
2023/09/30 13:09:38;;;;;;;5.32;1.83;;;19.70;99.90;;;;;;4940815;28;20039;-79
2023/09/30 13:12:04;;;;;;;4.95;1.77;;;;;;;;;;4945620;28;20427;-82
2023/09/30 13:14:30;;;;;;;6.07;1.92;;;;;;;;;;4947752;28;20027;-84
2023/09/30 13:16:56;;;;;;;7.82;2.15;;;;;;;;;;4944729;28;20035;-83
2023/09/30 13:19:23;;;;;;;5.93;1.65;;;;;;;;;;4941679;28;20037;-85
2023/09/30 13:21:52;;;;;;;5.85;2.53;;;19.70;99.90;;;;;;4935320;28;20079;-84
2023/09/30 13:24:19;;;;;;;8.77;1.88;;;23.00;99.90;;;;;;4946993;29;20038;-83
2023/09/30 13:26:45;;;;;;;5.00;2.22;;;20.50;99.90;;;;;;4946348;28;20043;-81
2023/09/30 13:29:12;;;;;;;8.65;2.78;;;;;;;;;;4943572;28;20039;-84
2023/09/30 13:31:38;;;;;;;8.43;2.80;;;;;;;;;;4932225;28;20390;-89
2023/09/30 13:34:05;;;;;;;7.10;2.42;;;20.80;99.90;;;;;;4944055;28;20028;-86
2023/09/30 13:36:30;;;;;;;4.97;1.98;;;20.50;99.90;;;;;;4941333;29;20067;-84
2023/09/30 13:38:56;;;;;;;8.02;2.10;;;21.10;99.90;;;;;;4930840;28;20090;-85
2023/09/30 13:41:22;;;;;;;7.20;2.25;;;;;;;;;;4942719;28;20042;-87
2023/09/30 13:43:48;;;;;;;5.68;2.22;;;;;;;;;;4948641;28;20067;-87
2023/09/30 13:46:15;;;;;;;4.15;1.67;;;;;;;;;;4947058;28;20039;-87
2023/09/30 13:48:41;;;;;;;6.32;2.33;;;;;;;;;;4944291;28;20063;-84
2023/09/30 13:51:08;;;;;;;7.93;2.67;;;20.40;99.90;;;;;;4944526;28;20773;-84
2023/09/30 13:53:34;;;;;;;6.10;2.15;;;;;;;;;;4937833;28;20082;-86
2023/09/30 13:56:00;;;;;;;8.68;2.67;;;;;;;;;;4947290;29;20110;-88
2023/09/30 13:58:26;;;;;;;5.15;2.08;;;;;;;;;;4946329;28;20083;-85
2023/09/30 14:00:52;;;;;;;7.82;2.45;;;;;;;;;;4942708;28;20047;-84
2023/09/30 14:03:18;;;;;;;5.10;1.50;;;;;;;;;;4952201;28;20447;-85
2023/09/30 14:05:45;;;;;;;4.70;1.83;;;20.70;99.90;;;;;;4946314;28;20043;-83
2023/09/30 14:08:11;;;;;;;4.47;1.80;;;;;;;;;;4939913;28;20542;-84
2023/09/30 14:10:37;;;;;;;10.05;2.78;;;;;;;;;;4949758;28;20031;-82
2023/09/30 14:13:03;;;;;;;7.15;2.65;;;20.10;99.90;;;;;;4945317;28;20475;-83
2023/09/30 14:15:31;;;;;;;4.78;1.55;;;;;;;;;;4951075;28;20035;-82